Time;durP1;ratioP1;P1;durP2;ratioP2;P2;SDS_P1;SDS_P2;PMS_P1;PMS_P2;Temp;Humidity;BMP_temperature;BMP_pressure;BME280_temperature;BME280_humidity;BME280_pressure;Samples;Min_cycle;Max_cycle;Signal;HPM_P1;HPM_P2
2021/08/03 00:00:52;;;;;;;0.40;0.10;;;;;;;18.96;59.66;100074.64;126076;1093;102874;-75
2021/08/03 00:03:27;;;;;;;0.40;0.10;;;;;;;18.93;60.31;100075.70;125855;1093;114032;-76
2021/08/03 00:05:56;;;;;;;0.40;0.10;;;;;;;18.87;59.99;100074.25;125922;1093;103037;-75
2021/08/03 00:08:39;;;;;;;0.40;0.10;;;;;;;18.80;60.25;100075.61;125876;1094;114202;-76
2021/08/03 00:11:07;;;;;;;0.40;0.10;;;;;;;18.80;60.48;100078.30;126032;1092;102978;-76
2021/08/03 00:13:36;;;;;;;0.40;0.10;;;;;;;18.83;60.13;100082.64;125991;1093;114332;-75
2021/08/03 00:16:08;;;;;;;0.40;0.10;;;;;;;18.88;60.31;100083.20;126042;1096;103117;-75
2021/08/03 00:18:41;;;;;;;0.40;0.10;;;;;;;18.92;60.05;100087.46;125983;1095;103113;-77
2021/08/03 00:21:11;;;;;;;0.40;0.10;;;;;;;18.87;60.31;100089.56;125973;1093;114331;-75
2021/08/03 00:23:41;;;;;;;0.40;0.10;;;;;;;18.98;59.92;100088.88;125960;1093;103023;-76
2021/08/03 00:26:14;;;;;;;0.40;0.10;;;;;;;19.03;59.80;100092.14;125889;1096;114510;-75
2021/08/03 00:28:49;;;;;;;0.40;0.10;;;;;;;18.92;59.57;100098.25;125970;1093;103167;-76
2021/08/03 00:31:18;;;;;;;0.40;0.10;;;;;;;18.90;59.90;100092.11;125911;1093;114330;-75
2021/08/03 00:33:49;;;;;;;0.40;0.10;;;;;;;18.87;59.84;100092.26;125959;1093;102869;-75
2021/08/03 00:36:17;;;;;;;0.40;0.10;;;;;;;18.93;59.82;100094.59;125962;1093;103092;-75
2021/08/03 00:38:45;;;;;;;0.40;0.10;;;;;;;19.02;59.69;100096.69;125893;1093;114051;-75
2021/08/03 00:41:18;;;;;;;0.40;0.10;;;;;;;19.01;59.17;100091.39;126042;1092;103042;-74
2021/08/03 00:43:45;;;;;;;0.40;0.10;;;;;;;18.92;59.32;100097.40;125868;1096;114402;-74
2021/08/03 00:46:12;;;;;;;0.40;0.10;;;;;;;18.84;59.44;100098.72;125985;1094;103067;-74
2021/08/03 00:48:40;;;;;;;0.40;0.10;;;;;;;18.87;59.44;100103.94;125980;1093;102922;-75
2021/08/03 00:51:07;;;;;;;0.40;0.10;;;;;;;18.87;59.51;100101.23;125907;1092;114092;-75
2021/08/03 00:53:34;;;;;;;0.40;0.10;;;;;;;18.86;59.49;100107.59;125946;1092;103187;-75
2021/08/03 00:56:01;;;;;;;0.40;0.10;;;;;;;18.85;59.72;100102.30;125854;1093;114328;-75
2021/08/03 00:58:29;;;;;;;0.40;0.10;;;;;;;18.83;59.59;100102.41;125936;1095;103063;-75
2021/08/03 01:00:57;;;;;;;0.40;0.10;;;;;;;18.88;59.70;100102.98;125977;1096;102930;-75
2021/08/03 01:03:25;;;;;;;0.40;0.10;;;;;;;18.83;59.26;100099.71;125800;1093;114548;-76
2021/08/03 01:06:01;;;;;;;0.40;0.10;;;;;;;18.78;59.63;100119.84;125964;1093;102926;-75
2021/08/03 01:08:38;;;;;;;0.40;0.10;;;;;;;18.82;59.52;100111.47;125850;1093;114130;-75
2021/08/03 01:11:10;;;;;;;0.40;0.10;;;;;;;18.75;59.28;100118.20;126020;1095;103663;-74
2021/08/03 01:14:10;;;;;;;0.40;0.10;;;;;;;18.70;59.78;100112.27;125876;1096;114289;-74
2021/08/03 01:16:51;;;;;;;0.40;0.10;;;;;;;18.69;59.60;100113.23;125869;1095;102981;-77
2021/08/03 01:19:46;;;;;;;0.40;0.10;;;;;;;18.74;59.47;100119.20;125875;1095;114228;-77
2021/08/03 01:22:16;;;;;;;0.40;0.10;;;;;;;18.69;59.51;100114.08;126006;1095;102927;-74
2021/08/03 01:25:21;;;;;;;0.40;0.10;;;;;;;18.63;59.80;100119.02;125961;1094;102900;-75
2021/08/03 01:28:10;;;;;;;0.40;0.10;;;;;;;18.70;59.46;100120.36;125936;1095;103055;-77
2021/08/03 01:30:38;;;;;;;0.40;0.10;;;;;;;18.66;59.48;100114.30;125979;1094;103326;-77
2021/08/03 01:33:06;;;;;;;0.40;0.10;;;;;;;18.63;59.43;100114.47;125924;1093;114127;-73
2021/08/03 01:35:33;;;;;;;0.40;0.10;;;;;;;18.61;59.43;100120.95;126012;1092;102968;-75
2021/08/03 01:38:02;;;;;;;0.40;0.10;;;;;;;18.59;59.53;100121.03;125840;1093;114269;-74
2021/08/03 01:40:30;;;;;;;0.40;0.10;;;;;;;18.61;59.56;100115.56;125978;1093;102895;-75
2021/08/03 01:42:57;;;;;;;0.40;0.10;;;;;;;18.54;59.27;100115.95;125877;1096;102997;-75
2021/08/03 01:45:25;;;;;;;0.40;0.10;;;;;;;18.59;59.23;100121.03;125860;1092;114166;-74
2021/08/03 01:47:53;;;;;;;0.40;0.10;;;;;;;18.49;59.09;100130.70;126002;1095;103049;-75
2021/08/03 01:50:22;;;;;;;0.40;0.10;;;;;;;18.43;59.83;100121.14;125806;1093;114197;-75
2021/08/03 01:52:49;;;;;;;0.40;0.10;;;;;;;18.42;59.72;100122.14;126009;1093;102908;-75
2021/08/03 01:55:16;;;;;;;0.40;0.10;;;;;;;18.49;59.48;100128.86;125967;1093;102980;-75
2021/08/03 01:57:45;;;;;;;0.40;0.10;;;;;;;18.48;59.36;100123.56;125883;1093;114871;-75
2021/08/03 02:00:13;;;;;;;0.40;0.10;;;;;;;18.39;59.76;100130.39;125979;1095;103730;-75
2021/08/03 02:02:41;;;;;;;0.40;0.10;;;;;;;18.39;59.33;100135.79;125911;1093;114121;-75
2021/08/03 02:05:09;;;;;;;0.40;0.10;;;;;;;18.42;60.21;100141.02;126027;1093;103113;-75
2021/08/03 02:07:36;;;;;;;0.40;0.10;;;;;;;18.45;59.98;100140.80;125849;1093;114318;-75
2021/08/03 02:10:04;;;;;;;0.40;0.10;;;;;;;18.48;59.94;100134.35;125806;1093;103041;-75
2021/08/03 02:12:33;;;;;;;0.40;0.10;;;;;;;18.41;59.98;100139.27;126075;1092;103042;-75
2021/08/03 02:15:00;;;;;;;0.40;0.10;;;;;;;18.38;59.90;100131.38;125907;1095;114292;-77
2021/08/03 02:17:27;;;;;;;0.40;0.10;;;;;;;18.37;59.78;100140.43;126093;1092;103002;-77
2021/08/03 02:19:55;;;;;;;0.40;0.10;;;;;;;18.35;59.75;100150.43;125862;1093;114292;-74
2021/08/03 02:22:22;;;;;;;0.40;0.10;;;;;;;18.36;59.94;100144.94;126013;1093;103028;-75
2021/08/03 02:24:50;;;;;;;0.40;0.10;;;;;;;18.32;59.95;100151.48;125962;1093;102997;-76
2021/08/03 02:27:17;;;;;;;0.40;0.10;;;;;;;18.27;59.92;100150.91;125850;1093;114234;-76
2021/08/03 02:29:45;;;;;;;0.40;0.10;;;;;;;18.23;60.21;100153.91;126002;1093;103044;-76
2021/08/03 02:32:20;;;;;;;0.40;0.10;;;;;;;18.18;60.30;100156.87;125900;1096;114510;-76
2021/08/03 02:34:59;;;;;;;0.40;0.10;;;;;;;18.16;60.10;100154.27;125972;1093;102924;-77
2021/08/03 02:37:33;;;;;;;0.40;0.10;;;;;;;18.21;60.19;100160.25;125999;1093;105899;-75
2021/08/03 02:40:03;;;;;;;0.40;0.10;;;;;;;18.20;59.71;100150.42;125889;1093;114028;-74
2021/08/03 02:42:31;;;;;;;0.40;0.10;;;;;;;18.07;60.50;100156.68;126038;1093;103204;-77
2021/08/03 02:45:03;;;;;;;0.40;0.10;;;;;;;17.99;60.35;100152.64;125994;1093;114253;-77
2021/08/03 02:47:40;;;;;;;0.40;0.10;;;;;;;18.01;60.64;100152.55;126290;1093;102862;-77
2021/08/03 02:50:09;;;;;;;0.40;0.10;;;;;;;17.99;60.32;100155.34;125918;1093;114493;-77
2021/08/03 02:52:39;;;;;;;0.40;0.10;;;;;;;17.99;59.88;100158.03;125979;1093;102889;-77
2021/08/03 02:55:18;;;;;;;0.40;0.10;;;;;;;17.97;59.52;100159.94;125903;1093;102988;-77
2021/08/03 02:57:49;;;;;;;0.40;0.10;;;;;;;17.97;59.55;100159.94;125906;1096;114146;-77
2021/08/03 03:00:17;;;;;;;0.40;0.10;;;;;;;17.91;58.93;100157.58;125950;1096;102924;-74
2021/08/03 03:02:44;;;;;;;0.40;0.10;;;;;;;17.87;59.52;100165.00;125872;1096;114106;-75
2021/08/03 03:05:27;;;;;;;0.40;0.10;;;;;;;17.86;59.39;100165.06;125912;1095;103150;-77
2021/08/03 03:08:01;;;;;;;0.40;0.10;;;;;;;17.87;59.42;100172.20;125893;1093;114306;-77
2021/08/03 03:10:30;;;;;;;0.40;0.10;;;;;;;17.76;58.96;100172.84;125993;1093;103032;-75
2021/08/03 03:13:03;;;;;;;0.40;0.10;;;;;;;17.75;59.38;100172.94;125954;1093;103162;-75
2021/08/03 03:15:30;;;;;;;0.40;0.10;;;;;;;17.77;59.43;100179.98;125887;1093;114222;-76
2021/08/03 03:17:58;;;;;;;0.40;0.10;;;;;;;17.80;59.84;100174.39;125936;1096;102951;-76
2021/08/03 03:20:26;;;;;;;0.40;0.10;;;;;;;17.78;59.20;100172.75;125895;1093;114296;-75
2021/08/03 03:22:54;;;;;;;0.40;0.10;;;;;;;17.78;59.85;100180.83;126026;1093;103061;-74
2021/08/03 03:25:24;;;;;;;0.40;0.10;;;;;;;17.70;59.04;100182.17;125936;1093;102943;-75
2021/08/03 03:27:54;;;;;;;0.40;0.10;;;;;;;17.65;58.88;100184.27;125867;1096;114142;-75
2021/08/03 03:30:22;;;;;;;0.40;0.10;;;;;;;17.63;59.23;100186.16;125972;1096;102910;-76
2021/08/03 03:32:50;;;;;;;0.40;0.10;;;;;;;17.57;58.97;100186.55;125949;1093;114157;-76
2021/08/03 03:35:20;;;;;;;0.40;0.10;;;;;;;17.49;58.69;100188.83;125974;1093;102903;-77
2021/08/03 03:37:50;;;;;;;0.40;0.10;;;;;;;17.45;59.22;100182.75;126357;1093;114390;-75
2021/08/03 03:40:19;;;;;;;0.40;0.10;;;;;;;17.48;58.91;100187.95;126014;1093;103123;-76
2021/08/03 03:42:48;;;;;;;0.40;0.10;;;;;;;17.57;59.34;100193.73;126009;1093;103016;-74
2021/08/03 03:45:16;;;;;;;0.40;0.10;;;;;;;17.58;58.78;100196.38;126464;1093;114153;-77
2021/08/03 03:48:10;;;;;;;0.40;0.10;;;;;;;17.59;58.12;100206.16;127178;1093;103183;-75
2021/08/03 03:50:45;;;;;;;0.40;0.10;;;;;;;17.54;58.12;100202.89;125812;1093;114130;-76
2021/08/03 03:53:16;;;;;;;0.40;0.10;;;;;;;17.53;58.42;100199.31;126059;1093;103108;-75
2021/08/03 03:55:50;;;;;;;0.40;0.10;;;;;;;17.62;58.81;100207.80;125868;1093;114329;-76
2021/08/03 03:58:18;;;;;;;0.40;0.10;;;;;;;17.64;58.30;100208.59;126045;1092;105062;-74
2021/08/03 04:00:48;;;;;;;0.40;0.10;;;;;;;17.66;57.92;100206.66;126113;1092;102908;-74
2021/08/03 04:03:18;;;;;;;0.40;0.10;;;;;;;17.66;58.07;100215.63;125925;1096;114281;-74
2021/08/03 04:05:47;;;;;;;0.40;0.10;;;;;;;17.74;58.30;100209.80;126018;1091;102888;-74
2021/08/03 04:08:15;;;;;;;0.40;0.10;;;;;;;17.81;57.89;100213.84;125905;1093;114489;-77
2021/08/03 04:10:42;;;;;;;0.40;0.10;;;;;;;17.87;58.01;100213.49;126024;1093;102902;-77
2021/08/03 04:13:12;;;;;;;0.40;0.10;;;;;;;17.88;58.09;100215.20;126037;1093;102874;-77
2021/08/03 04:15:40;;;;;;;0.40;0.10;;;;;;;17.92;58.12;100217.73;125924;1095;114131;-77
2021/08/03 04:18:07;;;;;;;0.40;0.10;;;;;;;17.92;57.47;100217.73;126022;1095;103080;-75
2021/08/03 04:20:34;;;;;;;0.40;0.10;;;;;;;17.85;57.58;100218.09;125866;1095;114207;-74
2021/08/03 04:23:02;;;;;;;0.40;0.10;;;;;;;17.86;57.37;100216.25;126078;1093;102994;-74
2021/08/03 04:25:29;;;;;;;0.40;0.10;;;;;;;17.79;57.12;100217.59;126046;1093;103004;-74
2021/08/03 04:27:56;;;;;;;0.40;0.10;;;;;;;17.74;57.33;100217.88;125850;1093;113945;-74
2021/08/03 04:30:23;;;;;;;0.40;0.10;;;;;;;17.81;57.33;100221.93;125993;1093;102894;-74
2021/08/03 04:32:51;;;;;;;0.40;0.10;;;;;;;17.77;56.73;100222.22;125897;1093;114130;-74
2021/08/03 04:35:18;;;;;;;0.40;0.10;;;;;;;17.69;57.04;100222.66;126031;1093;103306;-75
2021/08/03 04:37:47;;;;;;;0.40;0.10;;;;;;;17.72;57.21;100222.47;125882;1093;114255;-74
2021/08/03 04:40:16;;;;;;;0.40;0.10;;;;;;;17.75;57.12;100230.36;127583;1093;104241;-75
2021/08/03 04:42:44;;;;;;;0.40;0.10;;;;;;;17.83;57.13;100227.22;126030;1093;102943;-74
2021/08/03 04:45:11;;;;;;;0.40;0.10;;;;;;;17.93;57.01;100227.59;125865;1093;114125;-76
2021/08/03 04:47:46;;;;;;;0.40;0.10;;;;;;;17.95;57.04;100226.52;125985;1093;103369;-75
2021/08/03 04:50:16;;;;;;;0.40;0.10;;;;;;;17.95;57.44;100225.66;125844;1096;114340;-75
2021/08/03 04:52:43;;;;;;;0.40;0.10;;;;;;;18.01;57.11;100222.61;126009;1095;103129;-75
2021/08/03 04:55:12;;;;;;;0.40;0.10;;;;;;;18.05;56.97;100229.55;126024;1094;102929;-73
2021/08/03 04:57:39;;;;;;;0.40;0.10;;;;;;;18.15;56.59;100229.84;127494;1092;114106;-75
2021/08/03 05:00:09;;;;;;;0.40;0.10;;;;;;;18.21;56.07;100229.48;126507;1092;102893;-74
2021/08/03 05:02:37;;;;;;;0.40;0.10;;;;;;;18.25;55.86;100231.02;125890;1093;114151;-74
2021/08/03 05:05:06;;;;;;;0.40;0.10;;;;;;;18.25;56.13;100231.02;126036;1093;103041;-74
2021/08/03 05:07:33;;;;;;;0.40;0.10;;;;;;;18.28;56.17;100243.45;126003;1093;103036;-74
2021/08/03 05:10:06;;;;;;;0.40;0.10;;;;;;;18.33;56.04;100244.04;126047;1093;113263;-74
2021/08/03 05:12:34;;;;;;;0.40;0.10;;;;;;;18.42;56.40;100245.28;126361;1092;102920;-75
2021/08/03 05:15:01;;;;;;;0.40;0.10;;;;;;;18.43;55.75;100244.33;125853;1093;114104;-74
2021/08/03 05:17:30;;;;;;;0.40;0.10;;;;;;;18.40;55.42;100248.08;125976;1093;102951;-72
2021/08/03 05:19:57;;;;;;;0.40;0.10;;;;;;;18.38;55.51;100253.57;125886;1093;114329;-74
2021/08/03 05:22:25;;;;;;;0.40;0.10;;;;;;;18.49;55.68;100260.14;125992;1093;102887;-74
2021/08/03 05:24:53;;;;;;;0.40;0.10;;;;;;;18.57;56.25;100259.64;126085;1094;103084;-73
2021/08/03 05:27:21;;;;;;;0.40;0.10;;;;;;;18.62;55.19;100257.53;125800;1093;114168;-73
2021/08/03 05:29:48;;;;;;;0.40;0.10;;;;;;;18.66;55.47;100265.35;126060;1092;102900;-74
2021/08/03 05:32:15;;;;;;;0.40;0.10;;;;;;;18.63;54.90;100264.67;125907;1093;115274;-73
2021/08/03 05:34:42;;;;;;;0.40;0.10;;;;;;;18.61;55.46;100266.61;126029;1093;103451;-71
2021/08/03 05:37:10;;;;;;;0.40;0.10;;;;;;;18.64;55.37;100267.27;126045;1093;102986;-72
2021/08/03 05:39:37;;;;;;;0.40;0.10;;;;;;;18.67;55.25;100267.09;125913;1093;114267;-72
2021/08/03 05:42:04;;;;;;;0.40;0.10;;;;;;;18.72;55.67;100270.34;126063;1092;102916;-71
2021/08/03 05:44:32;;;;;;;0.40;0.10;;;;;;;18.78;55.69;100270.92;125965;1095;114132;-71
2021/08/03 05:47:00;;;;;;;0.40;0.10;;;;;;;18.78;55.57;100274.52;126004;1092;102890;-72
2021/08/03 05:49:27;;;;;;;0.40;0.10;;;;;;;18.78;54.87;100273.63;126092;1092;102899;-72
2021/08/03 05:52:00;;;;;;;0.40;0.10;;;;;;;18.82;55.52;100270.66;125910;1093;114329;-72
2021/08/03 05:54:28;;;;;;;0.40;0.10;;;;;;;18.96;55.35;100280.59;126093;1092;102910;-71
2021/08/03 05:56:55;;;;;;;0.40;0.10;;;;;;;19.05;54.87;100282.71;125906;1092;114185;-72
2021/08/03 05:59:22;;;;;;;0.40;0.10;;;;;;;19.08;54.85;100284.34;126018;1092;102911;-72
2021/08/03 06:01:50;;;;;;;0.40;0.10;;;;;;;19.15;55.09;100284.83;125944;1092;114272;-72
2021/08/03 06:04:17;;;;;;;0.40;0.10;;;;;;;19.16;54.50;100278.47;125989;1093;105073;-72
2021/08/03 06:06:46;;;;;;;0.40;0.10;;;;;;;19.23;54.66;100278.94;126046;1093;102922;-72
2021/08/03 06:09:14;;;;;;;0.40;0.10;;;;;;;19.23;54.56;100274.39;125873;1093;114367;-72
2021/08/03 06:11:49;;;;;;;0.40;0.10;;;;;;;19.27;54.44;100283.17;126033;1092;103025;-70
2021/08/03 06:14:31;;;;;;;0.40;0.10;;;;;;;19.23;54.21;100281.64;125902;1093;114293;-73
2021/08/03 06:17:02;;;;;;;0.40;0.05;;;;;;;19.26;54.14;100286.83;125968;1095;103147;-73
2021/08/03 06:19:35;;;;;;;0.40;0.10;;;;;;;19.38;54.24;100289.61;125981;1093;102907;-73
2021/08/03 06:22:02;;;;;;;0.40;0.10;;;;;;;19.44;54.25;100285.63;126003;1095;114169;-71
2021/08/03 06:24:30;;;;;;;0.40;0.10;;;;;;;19.52;54.47;100285.14;126006;1096;102914;-71
2021/08/03 06:26:57;;;;;;;0.40;0.10;;;;;;;19.57;55.00;100282.12;125908;1093;114454;-72
2021/08/03 06:29:26;;;;;;;0.40;0.10;;;;;;;19.65;54.99;100283.36;125934;1093;102988;-72
2021/08/03 06:31:53;;;;;;;0.40;0.10;;;;;;;19.77;54.23;100281.68;125908;1093;114333;-71
2021/08/03 06:34:21;;;;;;;0.40;0.10;;;;;;;19.85;53.93;100292.88;125997;1093;102892;-71
2021/08/03 06:36:48;;;;;;;0.40;0.10;;;;;;;19.91;52.82;100290.73;125970;1093;103042;-72
2021/08/03 06:39:15;;;;;;;0.40;0.10;;;;;;;19.98;53.71;100290.22;125897;1093;114164;-72
2021/08/03 06:41:43;;;;;;;0.40;0.10;;;;;;;20.01;52.75;100283.73;126015;1095;105369;-72
2021/08/03 06:44:13;;;;;;;0.40;0.10;;;;;;;20.09;52.86;100283.23;125953;1096;114395;-72
2021/08/03 06:46:45;;;;;;;0.40;0.10;;;;;;;20.16;52.15;100288.09;125952;1093;103039;-71
2021/08/03 06:49:15;;;;;;;0.40;0.10;;;;;;;20.23;53.03;100282.27;126024;1092;103001;-71
2021/08/03 06:51:43;;;;;;;0.40;0.00;;;;;;;20.27;51.78;100276.53;125924;1095;114127;-71
2021/08/03 06:54:12;;;;;;;0.40;0.10;;;;;;;20.23;52.11;100283.13;125987;1093;104752;-72
2021/08/03 06:56:48;;;;;;;0.40;0.10;;;;;;;20.33;51.63;100280.67;125898;1093;114206;-73
2021/08/03 06:59:25;;;;;;;0.40;0.10;;;;;;;20.37;51.81;100274.07;126000;1096;103122;-72
2021/08/03 07:02:00;;;;;;;0.40;0.10;;;;;;;20.41;51.75;100286.41;125896;1094;114455;-72
2021/08/03 07:04:52;;;;;;;0.40;0.10;;;;;;;20.47;51.45;100288.70;126004;1095;103196;-72
2021/08/03 07:07:19;;;;;;;0.40;0.10;;;;;;;20.51;51.43;100290.21;125949;1095;102976;-72
2021/08/03 07:09:47;;;;;;;0.40;0.10;;;;;;;20.59;51.07;100281.53;125873;1092;114208;-72
2021/08/03 07:12:15;;;;;;;0.40;0.10;;;;;;;20.63;51.14;100288.48;125966;1093;102962;-71
2021/08/03 07:14:43;;;;;;;0.40;0.10;;;;;;;20.65;50.60;100289.23;125879;1095;114318;-72
2021/08/03 07:17:14;;;;;;;0.40;0.10;;;;;;;20.73;50.22;100287.84;125974;1095;102882;-71
2021/08/03 07:19:43;;;;;;;0.40;0.10;;;;;;;20.80;50.42;100287.30;126205;1093;114278;-71
2021/08/03 07:22:13;;;;;;;0.40;0.10;;;;;;;20.87;50.96;100283.20;126030;1096;103018;-72
2021/08/03 07:24:45;;;;;;;0.40;0.10;;;;;;;20.92;49.46;100287.42;126042;1095;103000;-72
2021/08/03 07:27:13;;;;;;;0.40;0.00;;;;;;;21.00;49.67;100288.58;125887;1094;114196;-72
2021/08/03 07:29:41;;;;;;;0.40;0.10;;;;;;;21.10;49.92;100280.68;126065;1094;103033;-72
2021/08/03 07:32:08;;;;;;;0.40;0.10;;;;;;;21.16;49.35;100280.22;125896;1096;114254;-72
2021/08/03 07:34:37;;;;;;;0.40;0.10;;;;;;;21.20;49.35;100292.55;125989;1096;103055;-71
2021/08/03 07:37:07;;;;;;;0.40;0.10;;;;;;;21.26;48.65;100293.97;126014;1096;102975;-72
2021/08/03 07:39:35;;;;;;;0.40;0.10;;;;;;;21.28;48.33;100294.71;125729;1095;114204;-74
2021/08/03 07:42:03;;;;;;;0.40;0.10;;;;;;;21.37;47.67;100293.18;126337;1095;102962;-72
2021/08/03 07:44:31;;;;;;;0.40;0.07;;;;;;;21.44;47.77;100288.18;125888;1094;114145;-75
2021/08/03 07:46:58;;;;;;;0.40;0.10;;;;;;;21.48;47.07;100287.82;125977;1093;102998;-74
2021/08/03 07:49:25;;;;;;;0.40;0.10;;;;;;;21.52;47.27;100294.74;126012;1093;102932;-75
2021/08/03 07:51:52;;;;;;;0.40;0.00;;;;;;;21.61;47.38;100289.67;125909;1095;114123;-75
2021/08/03 07:54:19;;;;;;;0.40;0.10;;;;;;;21.70;46.94;100299.83;125943;1094;102897;-73
2021/08/03 07:56:47;;;;;;;0.40;0.08;;;;;;;21.80;46.91;100287.30;125930;1093;114768;-72
2021/08/03 07:59:14;;;;;;;0.40;0.10;;;;;;;21.84;47.54;100286.08;125987;1095;103039;-72
2021/08/03 08:01:41;;;;;;;0.40;0.00;;;;;;;21.87;47.04;100284.98;125877;1095;103119;-72
2021/08/03 08:04:09;;;;;;;0.40;0.10;;;;;;;21.97;46.70;100290.59;125898;1096;114830;-71
2021/08/03 08:06:36;;;;;;;0.40;0.03;;;;;;;22.05;46.49;100291.72;126022;1095;103071;-71
2021/08/03 08:09:16;;;;;;;0.40;0.00;;;;;;;22.14;45.17;100283.86;125846;1093;114143;-72
2021/08/03 08:11:43;;;;;;;0.40;0.00;;;;;;;;;;126036;1093;103066;-72
2021/08/03 08:14:11;;;;;;;0.40;0.00;;;;;;;22.45;45.95;100287.81;125855;1093;104987;-72
2021/08/03 08:16:39;;;;;;;0.40;0.00;;;;;;;22.53;45.06;100285.36;125868;1093;102958;-73
2021/08/03 08:19:06;;;;;;;0.40;0.00;;;;;;;22.60;45.21;100287.60;125928;1093;102964;-73
2021/08/03 08:21:33;;;;;;;0.40;0.00;;;;;;;22.54;41.77;100294.38;125945;1092;114312;-71
2021/08/03 08:24:02;;;;;;;0.40;0.00;;;;;;;22.50;42.24;100290.19;125979;1092;102902;-72
2021/08/03 08:26:30;;;;;;;0.40;0.00;;;;;;;22.56;42.43;100302.41;125710;1093;114256;-72
2021/08/03 08:28:57;;;;;;;0.40;0.00;;;;;;;22.59;41.84;100297.58;125829;1095;103621;-73
2021/08/03 08:31:25;;;;;;;0.40;0.00;;;;;;;22.65;41.98;100288.95;125944;1093;102902;-73
2021/08/03 08:33:52;;;;;;;0.40;0.00;;;;;;;22.88;43.42;100289.86;125825;1093;114117;-72
2021/08/03 08:36:19;;;;;;;0.40;0.00;;;;;;;23.01;42.43;100292.44;125983;1093;103177;-73
2021/08/03 08:38:46;;;;;;;0.40;0.00;;;;;;;23.13;42.39;100293.34;125825;1093;114315;-73
2021/08/03 08:41:13;;;;;;;0.40;0.00;;;;;;;23.24;41.90;100288.89;126020;1093;103028;-73
2021/08/03 08:43:41;;;;;;;0.40;0.00;;;;;;;23.36;41.49;100287.88;125920;1092;102905;-72
2021/08/03 08:46:14;;;;;;;0.40;0.00;;;;;;;23.31;40.32;100292.83;125725;1093;114006;-72
2021/08/03 08:48:43;;;;;;;0.40;0.00;;;;;;;23.23;41.02;100285.29;125883;1094;102887;-73
2021/08/03 08:51:10;;;;;;;0.40;0.00;;;;;;;23.20;41.33;100291.87;125765;1091;114404;-73
2021/08/03 08:53:37;;;;;;;0.40;0.00;;;;;;;23.32;40.17;100289.13;125927;1093;102975;-72
2021/08/03 08:56:05;;;;;;;0.40;0.00;;;;;;;23.37;40.48;100289.61;125752;1093;114454;-72
2021/08/03 08:58:34;;;;;;;0.40;0.00;;;;;;;23.38;40.74;100284.05;125857;1092;103000;-72
2021/08/03 09:01:03;;;;;;;0.40;0.00;;;;;;;23.52;39.89;100284.76;126648;1092;103382;-72
2021/08/03 09:03:31;;;;;;;0.40;0.00;;;;;;;23.72;41.32;100285.81;125882;1093;114139;-73
2021/08/03 09:06:04;;;;;;;0.40;0.00;;;;;;;23.82;39.95;100285.93;125950;1093;103030;-72
2021/08/03 09:08:44;;;;;;;0.40;0.00;;;;;;;23.95;39.50;100277.61;125861;1092;114296;-72
2021/08/03 09:11:16;;;;;;;0.40;0.00;;;;;;;24.19;40.58;100283.69;125996;1093;103154;-73
2021/08/03 09:14:02;;;;;;;0.40;0.00;;;;;;;24.27;39.85;100284.88;125981;1093;103036;-72
2021/08/03 09:16:44;;;;;;;0.40;0.00;;;;;;;24.46;39.49;100281.42;125859;1093;114197;-73
2021/08/03 09:19:47;;;;;;;0.40;0.00;;;;;;;24.73;38.43;100275.47;125998;1093;102931;-73
2021/08/03 09:22:21;;;;;;;0.40;0.00;;;;;;;24.75;37.55;100278.93;125722;1098;114114;-73
2021/08/03 09:24:50;;;;;;;0.40;0.00;;;;;;;24.77;36.93;100276.92;125854;1093;102975;-73
2021/08/03 09:27:45;;;;;;;0.40;0.00;;;;;;;25.04;37.98;100278.18;125880;1095;114157;-72
2021/08/03 09:30:18;;;;;;;0.40;0.00;;;;;;;25.07;37.38;100280.66;126031;1093;103143;-71
2021/08/03 09:32:47;;;;;;;0.40;0.00;;;;;;;24.98;38.17;100274.16;125897;1093;114416;-72
2021/08/03 09:35:16;;;;;;;0.40;0.00;;;;;;;25.29;36.65;100281.44;126065;1096;102900;-72
2021/08/03 09:37:44;;;;;;;0.40;0.00;;;;;;;25.18;37.12;100283.27;125993;1093;103381;-71
2021/08/03 09:40:22;;;;;;;0.40;0.00;;;;;;;25.53;37.64;100284.67;125937;1093;114084;-72
2021/08/03 09:43:05;;;;;;;0.40;0.00;;;;;;;26.85;34.07;100275.17;125999;1094;102895;-73
2021/08/03 09:45:36;;;;;;;0.40;0.00;;;;;;;27.07;36.09;100275.80;125875;1093;114093;-73
2021/08/03 09:48:17;;;;;;;0.40;0.00;;;;;;;27.43;33.95;100270.45;126043;1095;103171;-73
2021/08/03 09:50:53;;;;;;;0.40;0.00;;;;;;;28.07;33.75;100284.14;125877;1094;114312;-72
2021/08/03 09:53:38;;;;;;;0.40;0.00;;;;;;;29.48;29.34;100276.67;125951;1092;102910;-73
2021/08/03 09:56:07;;;;;;;0.40;0.00;;;;;;;30.88;28.51;100275.02;126056;1093;102931;-72
2021/08/03 09:58:58;;;;;;;0.40;0.00;;;;;;;30.94;28.87;100274.32;125892;1095;114130;-72
2021/08/03 10:01:35;;;;;;;0.40;0.00;;;;;;;32.53;26.27;100269.40;125973;1095;103051;-73
2021/08/03 10:04:08;;;;;;;0.40;0.00;;;;;;;33.23;23.84;100277.43;125956;1092;114176;-73
2021/08/03 10:06:37;;;;;;;0.40;0.00;;;;;;;33.90;22.44;100270.00;125995;1093;102903;-73
2021/08/03 10:09:10;;;;;;;0.40;0.00;;;;;;;34.49;21.96;100275.22;125856;1093;114107;-72
2021/08/03 10:11:38;;;;;;;0.40;0.00;;;;;;;34.90;22.37;100270.02;125992;1093;105242;-72
2021/08/03 10:14:23;;;;;;;0.40;0.00;;;;;;;35.32;22.10;100276.38;125911;1093;114448;-72
2021/08/03 10:16:51;;;;;;;0.40;0.00;;;;;;;35.28;20.98;100281.50;125907;1095;103012;-73
2021/08/03 10:19:41;;;;;;;0.40;0.00;;;;;;;35.38;20.18;100283.91;125897;1093;103049;-72
2021/08/03 10:22:30;;;;;;;0.40;0.00;;;;;;;36.20;21.51;100283.91;125907;1093;114170;-72
2021/08/03 10:25:10;;;;;;;0.40;0.00;;;;;;;36.12;19.56;100284.11;126063;1095;102880;-73
2021/08/03 10:27:40;;;;;;;0.40;0.00;;;;;;;36.38;20.21;100293.56;125809;1092;114091;-72
2021/08/03 10:30:09;;;;;;;0.40;0.00;;;;;;;36.13;19.63;100283.90;125987;1092;102974;-71
2021/08/03 10:32:41;;;;;;;0.40;0.00;;;;;;;36.61;19.82;100280.08;125847;1093;114242;-74
2021/08/03 10:35:14;;;;;;;0.40;0.00;;;;;;;35.73;20.00;100289.34;125907;1095;103113;-72
2021/08/03 10:38:00;;;;;;;0.40;0.00;;;;;;;34.01;21.02;100286.05;126012;1093;103106;-71
2021/08/03 10:41:02;;;;;;;0.40;0.00;;;;;;;34.28;21.15;100280.77;125871;1092;113939;-72
2021/08/03 10:43:41;;;;;;;0.40;0.00;;;;;;;33.53;23.31;100278.27;125996;1095;102972;-72
2021/08/03 10:46:08;;;;;;;0.40;0.00;;;;;;;32.49;22.84;100277.18;126027;1096;114037;-72
2021/08/03 10:48:38;;;;;;;0.40;0.00;;;;;;;32.80;22.87;100276.23;126028;1092;103031;-71
2021/08/03 10:53:51;;;;;;;0.40;0.00;;;;;;;34.06;22.63;100274.41;126111;1093;102900;-72
2021/08/03 10:56:19;;;;;;;0.40;0.00;;;;;;;34.03;22.43;100272.02;125993;1093;114312;-72
2021/08/03 10:58:46;;;;;;;0.40;0.00;;;;;;;32.51;23.07;100272.35;126076;1096;102900;-72
2021/08/03 11:01:43;;;;;;;0.40;0.00;;;;;;;32.16;24.82;100283.02;126032;1093;102911;-70
2021/08/03 11:04:46;;;;;;;0.40;0.00;;;;;;;31.88;24.43;100276.30;125958;1093;114321;-71
2021/08/03 11:07:31;;;;;;;0.40;0.00;;;;;;;31.40;25.48;100279.98;126076;1092;103382;-73
2021/08/03 11:10:02;;;;;;;0.40;0.00;;;;;;;31.14;26.12;100272.89;125928;1093;114580;-71
2021/08/03 11:12:43;;;;;;;0.40;0.00;;;;;;;30.81;25.95;100266.61;125904;1093;102923;-71
2021/08/03 11:15:21;;;;;;;0.40;0.00;;;;;;;30.00;26.92;100269.23;125929;1092;114125;-71
2021/08/03 11:17:54;;;;;;;0.40;0.00;;;;;;;29.54;28.28;100280.63;125946;1093;102972;-70
2021/08/03 11:20:36;;;;;;;0.40;0.00;;;;;;;29.23;28.50;100272.95;125814;1093;114268;-71
2021/08/03 11:23:10;;;;;;;0.40;0.00;;;;;;;28.77;29.17;100266.89;125874;1093;104839;-72
2021/08/03 11:25:39;;;;;;;0.40;0.00;;;;;;;28.60;29.69;100274.12;125972;1093;102976;-72
2021/08/03 11:28:26;;;;;;;0.40;0.00;;;;;;;28.16;30.18;100267.64;127173;1093;114471;-72
2021/08/03 11:30:53;;;;;;;0.40;0.00;;;;;;;27.88;31.34;100277.77;125948;1095;102945;-72